Schedule Details


Flight Number: CTN701
Departure: Lisbon (LPPT) at 11:00
Arrival: Franjo Tudman (LDZA) at 15:10
Route: FTM?UP600?PRT?UL155?ZMR?UN976?LATEK?UN871?NINUN?UZ871?ETIDO?UL55?BLONA?Y11?KUMIN?M730?KODOK?Y11?LURUT?M859?CHI?M167?ROTAR?DCT?ABLAT?DCT?ARGOM

Weather Information
LPPT 290230Z 21009KT 9999 SCT005 BKN008 14/14 Q1024
LDZA 290230Z 10003KT 090V170 9999 FEW010 01/00 Q1009 NOSIG
Schedule Frequency

Route Map